createdAt,value
2023-01-29T00:00:25.586Z,-1.63
2023-01-29T00:03:10.970Z,-1.65
2023-01-29T00:05:55.695Z,-1.68
2023-01-29T00:08:40.863Z,-1.70
2023-01-29T00:11:25.540Z,-1.71
2023-01-29T00:14:10.153Z,-1.75
2023-01-29T00:16:55.126Z,-1.73
2023-01-29T00:19:39.524Z,-1.72
2023-01-29T00:22:24.918Z,-1.69
2023-01-29T00:25:10.924Z,-1.72
2023-01-29T00:27:55.983Z,-1.76
2023-01-29T00:30:41.445Z,-1.76
2023-01-29T00:33:28.156Z,-1.74
2023-01-29T00:36:14.943Z,-1.76
2023-01-29T00:39:01.979Z,-1.74
2023-01-29T00:42:07.248Z,-1.73
2023-01-29T00:44:59.614Z,-1.75
2023-01-29T00:47:44.199Z,-1.72
2023-01-29T00:50:30.266Z,-1.71
2023-01-29T00:53:14.753Z,-1.73
2023-01-29T00:56:00.107Z,-1.75
2023-01-29T00:58:44.536Z,-1.75
2023-01-29T01:01:47.985Z,-1.74
2023-01-29T01:04:35.012Z,-1.73
2023-01-29T01:07:19.698Z,-1.73
2023-01-29T01:10:22.605Z,-1.71
2023-01-29T01:13:07.344Z,-1.78
2023-01-29T01:15:52.850Z,-1.80
2023-01-29T01:18:38.248Z,-1.80
2023-01-29T01:21:23.408Z,-1.81
2023-01-29T01:24:08.108Z,-1.78
2023-01-29T01:26:52.916Z,-1.80
2023-01-29T01:29:38.392Z,-1.80
2023-01-29T01:32:23.269Z,-1.84
2023-01-29T01:35:10.481Z,-1.86
2023-01-29T01:37:55.303Z,-1.86
2023-01-29T01:40:45.221Z,-1.83
2023-01-29T01:43:48.261Z,-1.85
2023-01-29T01:46:37.331Z,-1.84
2023-01-29T01:49:23.838Z,-1.87
2023-01-29T01:52:09.312Z,-1.87
2023-01-29T01:54:54.393Z,-1.84
2023-01-29T01:57:40.566Z,-1.87
2023-01-29T02:00:26.291Z,-1.93
2023-01-29T02:03:30.634Z,-1.94
2023-01-29T02:06:34.443Z,-1.96
2023-01-29T02:09:38.148Z,-1.95
2023-01-29T02:12:23.625Z,-1.99
2023-01-29T02:15:09.170Z,-2.02
2023-01-29T02:17:54.015Z,-2.01
2023-01-29T02:20:43.343Z,-2.01
2023-01-29T02:23:48.136Z,-2.00
2023-01-29T02:26:59.472Z,-2.03
2023-01-29T02:29:52.166Z,-2.07
2023-01-29T02:32:54.481Z,-2.08
2023-01-29T02:35:50.199Z,-2.06
2023-01-29T02:38:47.207Z,-2.07
2023-01-29T02:41:41.491Z,-2.07
2023-01-29T02:44:46.896Z,-2.10
2023-01-29T02:47:39.395Z,-2.09
2023-01-29T02:50:45.144Z,-2.11
2023-01-29T02:54:01.578Z,-2.13
2023-01-29T02:56:59.150Z,-2.16
2023-01-29T03:00:46.828Z,-2.15
2023-01-29T03:03:39.891Z,-2.14
2023-01-29T03:06:37.505Z,-2.17
2023-01-29T03:09:27.677Z,-2.12
2023-01-29T03:12:28.416Z,-2.11
2023-01-29T03:15:24.699Z,-2.12
2023-01-29T03:18:30.034Z,-2.12
2023-01-29T03:21:48.783Z,-2.10
2023-01-29T03:25:08.048Z,-2.09
2023-01-29T03:28:17.982Z,-2.14
2023-01-29T03:31:27.035Z,-2.18
2023-01-29T03:34:24.058Z,-2.17
2023-01-29T03:37:27.184Z,-2.18
2023-01-29T03:40:13.615Z,-2.16
2023-01-29T03:43:25.870Z,-2.16
2023-01-29T03:46:22.519Z,-2.18
2023-01-29T03:49:51.970Z,-2.18
2023-01-29T03:53:07.838Z,-2.19
2023-01-29T03:56:06.384Z,-2.24
2023-01-29T03:59:18.536Z,-2.21
2023-01-29T04:02:31.327Z,-2.19
2023-01-29T04:05:22.139Z,-2.23
2023-01-29T04:08:27.031Z,-2.20
2023-01-29T04:11:16.432Z,-2.20
2023-01-29T04:14:01.868Z,-2.19
2023-01-29T04:16:52.760Z,-2.18
2023-01-29T04:20:02.935Z,-2.17
2023-01-29T04:22:50.908Z,-2.18
2023-01-29T04:25:45.107Z,-2.20
2023-01-29T04:28:47.476Z,-2.20
2023-01-29T04:31:43.010Z,-2.21
2023-01-29T04:34:34.384Z,-2.21
2023-01-29T04:37:43.381Z,-2.21
2023-01-29T04:40:54.866Z,-2.21
2023-01-29T04:43:52.130Z,-2.20
2023-01-29T04:47:13.025Z,-2.21
2023-01-29T04:50:09.722Z,-2.19
2023-01-29T04:53:11.365Z,-2.23
2023-01-29T04:56:20.180Z,-2.20
2023-01-29T04:59:09.470Z,-2.23
2023-01-29T05:01:54.480Z,-2.22
2023-01-29T05:04:41.516Z,-2.21
2023-01-29T05:07:30.278Z,-2.22
2023-01-29T05:10:18.651Z,-2.23
2023-01-29T05:13:07.954Z,-2.23
2023-01-29T05:16:28.175Z,-2.26
2023-01-29T05:19:15.319Z,-2.25
2023-01-29T05:22:00.441Z,-2.25
2023-01-29T05:24:45.946Z,-2.22
2023-01-29T05:27:53.957Z,-2.20
2023-01-29T05:30:39.799Z,-2.22
2023-01-29T05:33:30.407Z,-2.24
2023-01-29T05:36:15.524Z,-2.25
2023-01-29T05:39:00.217Z,-2.25
2023-01-29T05:41:45.092Z,-2.21
2023-01-29T05:44:30.057Z,-2.20
2023-01-29T05:47:19.340Z,-2.20
2023-01-29T05:50:05.744Z,-2.20
2023-01-29T05:52:59.537Z,-2.23
2023-01-29T05:55:45.548Z,-2.21
2023-01-29T05:58:31.989Z,-2.21
2023-01-29T06:01:19.758Z,-2.19
2023-01-29T06:04:04.629Z,-2.19
2023-01-29T06:06:49.564Z,-2.16
2023-01-29T06:09:34.411Z,-2.12
2023-01-29T06:12:19.416Z,-2.15
2023-01-29T06:15:04.355Z,-2.13
2023-01-29T06:17:49.045Z,-2.12
2023-01-29T06:20:33.843Z,-2.11
2023-01-29T06:23:18.554Z,-2.10
2023-01-29T06:26:09.740Z,-2.09
2023-01-29T06:28:54.807Z,-2.07
2023-01-29T06:31:40.092Z,-2.07
2023-01-29T06:34:24.967Z,-2.05
2023-01-29T06:37:09.958Z,-2.03
2023-01-29T06:39:54.884Z,-1.99
2023-01-29T06:42:39.618Z,-1.95
2023-01-29T06:45:24.616Z,-1.91
2023-01-29T06:48:09.200Z,-1.86
2023-01-29T06:50:54.926Z,-1.79
2023-01-29T06:53:39.697Z,-1.79
2023-01-29T06:56:25.220Z,-1.78
2023-01-29T06:59:11.993Z,-1.77
2023-01-29T07:01:56.731Z,-1.80
2023-01-29T07:04:42.122Z,-1.75
2023-01-29T07:07:26.697Z,-1.75
2023-01-29T07:10:11.633Z,-1.78
2023-01-29T07:12:58.553Z,-1.79
2023-01-29T07:15:44.150Z,-1.75
2023-01-29T07:18:29.479Z,-1.76
2023-01-29T07:21:14.578Z,-1.71
2023-01-29T07:23:59.493Z,-1.72
2023-01-29T07:26:44.942Z,-1.72
2023-01-29T07:29:29.796Z,-1.76
2023-01-29T07:32:14.616Z,-1.73
2023-01-29T07:34:59.225Z,-1.72
2023-01-29T07:37:44.223Z,-1.74
2023-01-29T07:40:29.078Z,-1.74
2023-01-29T07:43:14.307Z,-1.77
2023-01-29T07:46:03.838Z,-1.74
2023-01-29T07:48:48.808Z,-1.75
2023-01-29T07:51:33.792Z,-1.73
2023-01-29T07:54:18.472Z,-1.79
2023-01-29T07:57:03.349Z,-1.75
2023-01-29T07:59:48.080Z,-1.74
2023-01-29T08:02:33.190Z,-1.73
2023-01-29T08:05:18.223Z,-1.73
2023-01-29T08:08:07.381Z,-1.74
2023-01-29T08:10:52.271Z,-1.72
2023-01-29T08:13:37.201Z,-1.73
2023-01-29T08:16:22.856Z,-1.72
2023-01-29T08:19:07.930Z,-1.71
2023-01-29T08:21:52.709Z,-1.74
2023-01-29T08:24:53.215Z,-1.73
2023-01-29T08:27:40.038Z,-1.69
2023-01-29T08:30:27.403Z,-1.67
2023-01-29T08:33:12.100Z,-1.70
2023-01-29T08:35:56.885Z,-1.64
2023-01-29T08:38:41.717Z,-1.62
2023-01-29T08:41:26.679Z,-1.59
2023-01-29T08:44:12.090Z,-1.56
2023-01-29T08:46:56.867Z,-1.58
2023-01-29T08:49:41.793Z,-1.58
2023-01-29T08:52:26.754Z,-1.55
2023-01-29T08:55:12.731Z,-1.49
2023-01-29T08:57:57.389Z,-1.50
2023-01-29T09:00:42.283Z,-1.45
2023-01-29T09:03:27.292Z,-1.45
2023-01-29T09:06:13.871Z,-1.41
2023-01-29T09:08:58.730Z,-1.38
2023-01-29T09:11:44.251Z,-1.37
2023-01-29T09:14:29.089Z,-1.33
2023-01-29T09:17:13.682Z,-1.35
2023-01-29T09:19:58.660Z,-1.36
2023-01-29T09:22:43.662Z,-1.35
2023-01-29T09:25:28.975Z,-1.36
2023-01-29T09:28:13.561Z,-1.43
2023-01-29T09:31:00.594Z,-1.46
2023-01-29T09:33:45.459Z,-1.53
2023-01-29T09:36:30.107Z,-1.55
2023-01-29T09:39:14.973Z,-1.52
2023-01-29T09:41:59.591Z,-1.50
2023-01-29T09:45:10.076Z,-1.43
2023-01-29T09:48:05.152Z,-1.45
2023-01-29T09:50:54.559Z,-1.45
2023-01-29T09:53:46.972Z,-1.50
2023-01-29T09:56:31.603Z,-1.45
2023-01-29T09:59:17.895Z,-1.38
2023-01-29T10:02:03.373Z,-1.32
2023-01-29T10:05:09.693Z,-1.28
2023-01-29T10:08:09.587Z,-1.32
2023-01-29T10:11:11.016Z,-1.30
2023-01-29T10:14:22.509Z,-1.36
2023-01-29T10:17:25.493Z,-1.37
2023-01-29T10:20:28.877Z,-1.34
2023-01-29T10:23:28.539Z,-1.35
2023-01-29T10:26:13.776Z,-1.34
2023-01-29T10:29:00.668Z,-1.38
2023-01-29T10:31:51.796Z,-1.38
2023-01-29T10:34:48.025Z,-1.34
2023-01-29T10:37:41.989Z,-1.31
2023-01-29T10:41:25.572Z,-1.25
2023-01-29T10:44:29.892Z,-1.26
2023-01-29T10:47:53.542Z,-1.26
2023-01-29T10:51:18.396Z,-1.29
2023-01-29T10:54:26.412Z,-1.27
2023-01-29T10:57:28.693Z,-1.32
2023-01-29T11:00:20.907Z,-1.32
2023-01-29T11:03:28.806Z,-1.31
2023-01-29T11:06:30.322Z,-1.31
2023-01-29T11:09:41.078Z,-1.31
2023-01-29T11:12:30.860Z,-1.30
2023-01-29T11:15:22.009Z,-1.26
2023-01-29T11:18:13.068Z,-1.24
2023-01-29T11:21:04.058Z,-1.23
2023-01-29T11:23:48.798Z,-1.15
2023-01-29T11:26:37.831Z,-1.09
2023-01-29T11:29:38.744Z,-1.07
2023-01-29T11:32:23.364Z,-1.12
2023-01-29T11:35:14.082Z,-1.13
2023-01-29T11:38:19.277Z,-1.16
2023-01-29T11:41:17.886Z,-1.18
2023-01-29T11:44:17.813Z,-1.19
2023-01-29T11:47:26.886Z,-1.20
2023-01-29T11:50:21.339Z,-1.25
2023-01-29T11:53:07.057Z,-1.32
2023-01-29T11:55:52.431Z,-1.29
2023-01-29T11:58:37.333Z,-1.31
2023-01-29T12:01:36.327Z,-1.36
2023-01-29T12:04:25.699Z,-1.43
2023-01-29T12:07:15.837Z,-1.47
2023-01-29T12:10:00.956Z,-1.40
2023-01-29T12:12:46.251Z,-1.45
2023-01-29T12:15:30.907Z,-1.43
2023-01-29T12:18:18.849Z,-1.39
2023-01-29T12:21:09.875Z,-1.34
2023-01-29T12:24:20.771Z,-1.32
2023-01-29T12:27:24.710Z,-1.37
2023-01-29T12:30:19.118Z,-1.31
2023-01-29T12:33:20.192Z,-1.32
2023-01-29T12:36:11.942Z,-1.38
2023-01-29T12:38:58.600Z,-1.40
2023-01-29T12:41:46.529Z,-1.42
2023-01-29T12:44:54.965Z,-1.42
2023-01-29T12:48:05.502Z,-1.44
2023-01-29T12:50:53.020Z,-1.39
2023-01-29T12:53:39.435Z,-1.43
2023-01-29T12:56:36.402Z,-1.39
2023-01-29T12:59:29.366Z,-1.40
2023-01-29T13:02:35.843Z,-1.39
2023-01-29T13:05:23.400Z,-1.41
2023-01-29T13:08:42.797Z,-1.48
2023-01-29T13:11:37.378Z,-1.50
2023-01-29T13:14:35.340Z,-1.50
2023-01-29T13:17:30.606Z,-1.43
2023-01-29T13:20:30.391Z,-1.42
2023-01-29T13:23:36.801Z,-1.44
2023-01-29T13:26:22.590Z,-1.41
2023-01-29T13:29:32.200Z,-1.42
2023-01-29T13:32:50.777Z,-1.41
2023-01-29T13:35:44.350Z,-1.44
2023-01-29T13:38:32.995Z,-1.48
2023-01-29T13:41:17.995Z,-1.45
2023-01-29T13:44:07.461Z,-1.40
2023-01-29T13:46:59.534Z,-1.40
2023-01-29T13:49:55.761Z,-1.39
2023-01-29T13:52:43.849Z,-1.42
2023-01-29T13:55:32.894Z,-1.41
2023-01-29T13:58:43.140Z,-1.43
2023-01-29T14:01:46.471Z,-1.44
2023-01-29T14:04:31.994Z,-1.46
2023-01-29T14:07:35.423Z,-1.48
2023-01-29T14:10:23.439Z,-1.49
2023-01-29T14:13:11.280Z,-1.47
2023-01-29T14:15:55.848Z,-1.50
2023-01-29T14:19:07.097Z,-1.53
2023-01-29T14:21:52.609Z,-1.57
2023-01-29T14:24:42.023Z,-1.64
2023-01-29T14:27:27.718Z,-1.64
2023-01-29T14:30:17.596Z,-1.64
2023-01-29T14:33:02.947Z,-1.64
2023-01-29T14:35:52.504Z,-1.68
2023-01-29T14:38:39.478Z,-1.67
2023-01-29T14:41:33.219Z,-1.66
2023-01-29T14:44:55.931Z,-1.65
2023-01-29T14:47:40.745Z,-1.67
2023-01-29T14:50:28.577Z,-1.67
2023-01-29T14:53:25.607Z,-1.70
2023-01-29T14:56:26.457Z,-1.72
2023-01-29T14:59:26.344Z,-1.71
2023-01-29T15:02:26.600Z,-1.74
2023-01-29T15:05:18.103Z,-1.72
2023-01-29T15:08:13.371Z,-1.72
2023-01-29T15:11:21.202Z,-1.70
2023-01-29T15:14:16.148Z,-1.75
2023-01-29T15:17:19.091Z,-1.73
2023-01-29T15:20:35.079Z,-1.71
2023-01-29T15:23:27.036Z,-1.73
2023-01-29T15:26:18.627Z,-1.75
2023-01-29T15:29:05.272Z,-1.75
2023-01-29T15:31:50.526Z,-1.74
2023-01-29T15:34:35.670Z,-1.73
2023-01-29T15:37:39.541Z,-1.75
2023-01-29T15:40:24.907Z,-1.75
2023-01-29T15:43:28.798Z,-1.74
2023-01-29T15:46:34.176Z,-1.74
2023-01-29T15:49:29.792Z,-1.74
2023-01-29T15:52:34.465Z,-1.74
2023-01-29T15:55:22.712Z,-1.72
2023-01-29T15:58:15.238Z,-1.76
2023-01-29T16:01:01.248Z,-1.72
2023-01-29T16:03:49.513Z,-1.72
2023-01-29T16:06:40.260Z,-1.70
2023-01-29T16:09:26.678Z,-1.72
2023-01-29T16:12:12.811Z,-1.76
2023-01-29T16:14:57.803Z,-1.76
2023-01-29T16:17:44.553Z,-1.72
2023-01-29T16:20:29.467Z,-1.71
2023-01-29T16:23:21.964Z,-1.74
2023-01-29T16:26:12.194Z,-1.70
2023-01-29T16:29:02.664Z,-1.74
2023-01-29T16:31:50.901Z,-1.73
2023-01-29T16:34:44.172Z,-1.75
2023-01-29T16:37:35.093Z,-1.76
2023-01-29T16:40:32.457Z,-1.78
2023-01-29T16:43:17.527Z,-1.76
2023-01-29T16:46:02.886Z,-1.74
2023-01-29T16:48:47.881Z,-1.76
2023-01-29T16:51:39.150Z,-1.75
2023-01-29T16:54:25.596Z,-1.74
2023-01-29T16:57:17.572Z,-1.76
2023-01-29T17:00:07.936Z,-1.77
2023-01-29T17:02:58.847Z,-1.76
2023-01-29T17:05:44.860Z,-1.74
2023-01-29T17:08:33.334Z,-1.74
2023-01-29T17:11:35.697Z,-1.77
2023-01-29T17:14:20.864Z,-1.77
2023-01-29T17:17:14.542Z,-1.79
2023-01-29T17:20:13.480Z,-1.78
2023-01-29T17:22:58.310Z,-1.78
2023-01-29T17:25:43.895Z,-1.76
2023-01-29T17:28:30.362Z,-1.76
2023-01-29T17:31:15.000Z,-1.79
2023-01-29T17:33:59.839Z,-1.79
2023-01-29T17:36:45.355Z,-1.80
2023-01-29T17:39:30.037Z,-1.82
2023-01-29T17:42:15.192Z,-1.84
2023-01-29T17:44:59.869Z,-1.83
2023-01-29T17:47:44.933Z,-1.84
2023-01-29T17:50:31.719Z,-1.87
2023-01-29T17:53:16.740Z,-1.88
2023-01-29T17:56:01.753Z,-1.89
2023-01-29T17:58:47.028Z,-1.90
2023-01-29T18:01:31.943Z,-1.90
2023-01-29T18:04:17.069Z,-1.92
2023-01-29T18:07:02.162Z,-1.93
2023-01-29T18:09:46.720Z,-1.95
2023-01-29T18:12:31.402Z,-1.97
2023-01-29T18:15:16.717Z,-1.97
2023-01-29T18:18:02.042Z,-2.01
2023-01-29T18:20:46.742Z,-2.02
2023-01-29T18:23:32.045Z,-2.04
2023-01-29T18:26:17.246Z,-2.03
2023-01-29T18:29:03.372Z,-2.04
2023-01-29T18:31:49.104Z,-2.02
2023-01-29T18:34:34.222Z,-2.04
2023-01-29T18:37:18.869Z,-2.03
2023-01-29T18:40:05.348Z,-2.00
2023-01-29T18:42:50.489Z,-2.04
2023-01-29T18:45:35.985Z,-2.07
2023-01-29T18:48:21.190Z,-2.12
2023-01-29T18:51:06.382Z,-2.20
2023-01-29T18:53:51.683Z,-2.27
2023-01-29T18:56:36.529Z,-2.39
2023-01-29T18:59:21.298Z,-2.44
2023-01-29T19:02:06.963Z,-2.55
2023-01-29T19:04:51.704Z,-2.63
2023-01-29T19:07:36.818Z,-2.62
2023-01-29T19:10:22.151Z,-2.62
2023-01-29T19:13:07.232Z,-2.64
2023-01-29T19:15:52.031Z,-2.61
2023-01-29T19:18:37.265Z,-2.58
2023-01-29T19:21:23.464Z,-2.58
2023-01-29T19:24:09.625Z,-2.49
2023-01-29T19:26:54.784Z,-2.47
2023-01-29T19:29:39.803Z,-2.43
2023-01-29T19:32:25.565Z,-2.42
2023-01-29T19:35:10.552Z,-2.42
2023-01-29T19:37:55.325Z,-2.40
2023-01-29T19:40:39.744Z,-2.40
2023-01-29T19:43:29.858Z,-2.39
2023-01-29T19:46:15.675Z,-2.44
2023-01-29T19:49:02.910Z,-2.38
2023-01-29T19:51:47.725Z,-2.34
2023-01-29T19:54:32.580Z,-2.34
2023-01-29T19:57:17.520Z,-2.28
2023-01-29T20:00:04.984Z,-2.29
2023-01-29T20:02:50.128Z,-2.26
2023-01-29T20:05:36.772Z,-2.25
2023-01-29T20:08:23.137Z,-2.22
2023-01-29T20:11:09.310Z,-2.21
2023-01-29T20:13:54.097Z,-2.19
2023-01-29T20:16:38.923Z,-2.16
2023-01-29T20:19:23.497Z,-2.16
2023-01-29T20:22:07.915Z,-2.17
2023-01-29T20:24:53.060Z,-2.15
2023-01-29T20:27:38.070Z,-2.20
2023-01-29T20:30:22.873Z,-2.15
2023-01-29T20:33:08.599Z,-2.15
2023-01-29T20:35:55.048Z,-2.11
2023-01-29T20:38:39.889Z,-2.11
2023-01-29T20:41:24.646Z,-2.07
2023-01-29T20:44:09.864Z,-2.12
2023-01-29T20:46:55.636Z,-2.09
2023-01-29T20:49:40.656Z,-2.12
2023-01-29T20:52:25.971Z,-2.10
2023-01-29T20:55:12.154Z,-2.07
2023-01-29T20:58:06.357Z,-2.06
2023-01-29T21:00:52.500Z,-2.05
2023-01-29T21:03:38.749Z,-2.06
2023-01-29T21:06:24.977Z,-2.12
2023-01-29T21:09:09.950Z,-2.04
2023-01-29T21:11:55.013Z,-2.06
2023-01-29T21:14:39.811Z,-2.02
2023-01-29T21:17:25.060Z,-2.07
2023-01-29T21:20:10.823Z,-2.08
2023-01-29T21:22:55.760Z,-2.10
2023-01-29T21:25:40.767Z,-2.15
2023-01-29T21:28:25.559Z,-2.14
2023-01-29T21:31:14.177Z,-2.14
2023-01-29T21:33:59.086Z,-2.11
2023-01-29T21:36:46.100Z,-2.14
2023-01-29T21:39:30.869Z,-2.12
2023-01-29T21:42:34.053Z,-2.12
2023-01-29T21:45:19.408Z,-2.09
2023-01-29T21:48:04.603Z,-2.11
2023-01-29T21:50:49.777Z,-2.12
2023-01-29T21:53:34.526Z,-2.12
2023-01-29T21:56:19.567Z,-2.17
2023-01-29T21:59:04.317Z,-2.14
2023-01-29T22:01:49.405Z,-2.18
2023-01-29T22:04:34.373Z,-2.19
2023-01-29T22:07:18.952Z,-2.16
2023-01-29T22:10:04.717Z,-2.19
2023-01-29T22:12:49.451Z,-2.18
2023-01-29T22:15:34.062Z,-2.18
2023-01-29T22:18:18.892Z,-2.20
2023-01-29T22:21:03.944Z,-2.22
2023-01-29T22:23:51.150Z,-2.26
2023-01-29T22:26:36.241Z,-2.34
2023-01-29T22:29:21.091Z,-2.43
2023-01-29T22:32:06.723Z,-2.50
2023-01-29T22:34:51.685Z,-2.54
2023-01-29T22:37:36.142Z,-2.61
2023-01-29T22:40:21.086Z,-2.64
2023-01-29T22:43:06.287Z,-2.65
2023-01-29T22:45:51.347Z,-2.64
2023-01-29T22:48:36.087Z,-2.64
2023-01-29T22:51:20.883Z,-2.71
2023-01-29T22:54:05.519Z,-2.72
2023-01-29T22:56:49.992Z,-2.70
2023-01-29T22:59:34.965Z,-2.64
2023-01-29T23:02:20.602Z,-2.65
2023-01-29T23:05:06.555Z,-2.63
2023-01-29T23:07:51.157Z,-2.64
2023-01-29T23:10:35.777Z,-2.65
2023-01-29T23:13:20.293Z,-2.62
2023-01-29T23:16:05.538Z,-2.59
2023-01-29T23:18:52.346Z,-2.61
2023-01-29T23:21:37.954Z,-2.57
2023-01-29T23:24:22.718Z,-2.56
2023-01-29T23:27:13.836Z,-2.53
2023-01-29T23:29:58.622Z,-2.49
2023-01-29T23:32:43.746Z,-2.49
2023-01-29T23:35:28.585Z,-2.54
2023-01-29T23:38:13.200Z,-2.54
2023-01-29T23:40:59.129Z,-2.56
2023-01-29T23:43:44.040Z,-2.60
2023-01-29T23:46:29.442Z,-2.60
2023-01-29T23:49:13.982Z,-2.60
2023-01-29T23:51:59.147Z,-2.60
2023-01-29T23:54:43.843Z,-2.61
2023-01-29T23:57:28.420Z,-2.60
